Kuujjuarapik Airport
CYGW : now visible

Airfield :











YOU CAN JOIN US ON...

 
LOGIN :

Register | Disclaimer

   EN    FR    IT 

 









Legend :    VFR   Marginal VFR   IFR   Intensive IFR   Very Intensive IFR
Visi :
Ceiling :
>= 8 km
>= 3000ft
5 to 8 km
1000 to 3000 ft
1500m to 5 km
500 to 1000 ft
800 to 1500m
200 to 500 ft
< 800m
< 200 ft
Symbols :   Thunderstorms  Fog  Heavy snow  Heavy precipitations  Wind > 20 kt






- Airport Elevation : 34 ft
- IATA code : YGW


CYGW - Kuujjuarapik

CURRENT METAR :
  • 250400Z AUTO 29015G22KT 9SM OVC019 M01/M04 A3011 RMK SLP200

EXPIRED METARs :
  • 250300Z AUTO 30014G22KT 9SM OVC021 M01/M03 A3009 RMK SLP193
  • 250230Z AUTO 29015G21KT 9SM SCT013 OVC021 M00/M03 A3008 RMK SLP189
  • 250220Z AUTO 29013G18KT 7SM -SN SCT013 OVC020 M01/M01 A3008 RMK SLP188
  • 250212Z AUTO 29014G22KT 5SM -SN BKN013 OVC022 M01/M01 A3007 RMK SLP187
  • 250144Z AUTO 30015G24KT 9SM OVC022 M00/M03 A3006 RMK SLP182

TAF TAF CYGW
Valid from the 25 at 00:00 until the 25 at 12:00 UTC


242340Z 2500/2512 26015G25KT 6SM -RA BR SCT010 OVC020
TEMPO 2500/2502 2 1/2SM -SHSN BR OVC006
PROB30 2500/2502 2SM -FZDZ BR
FM250200 28012G22KT 3SM -SHSN BKN020
TEMPO 2502/2509 P6SM NSW BKN025
PROB30 2502/2509 2 1/2SM -SHSN
FM250900 28010G20KT 5SM -SHSN FEW010 BKN020
BECMG 2510/2512 27012KT RMK FCST BASED ON AUTO OBS. NXT FCST BY 250600Z
CZUL FIR / North America



MET'MAP, your aeronautical weather chart ! - Copyright ORBIFLY December 2007 - Disclaimer

ORBIFLY MET'MAP TEAM :

Programming & Development : Alexandra Zaïnal
Original concept : Baudouin d'Aumeries
Technical & hardware support : Manuel Goepfert
Assistance : Marc-Olivier Méhu

Contact : metmap@orbifly.com




SOURCES & CREDITS :

   NOAA       Earth
Advisory